createdAt,value
2022-09-14T00:00:10.553Z,25.84
2022-09-14T00:00:58.498Z,25.84
2022-09-14T00:01:46.789Z,25.87
2022-09-14T00:02:29.728Z,25.86
2022-09-14T00:03:10.334Z,25.86
2022-09-14T00:03:55.532Z,25.87
2022-09-14T00:04:36.569Z,25.85
2022-09-14T00:05:16.510Z,25.85
2022-09-14T00:05:57.227Z,25.87
2022-09-14T00:06:36.763Z,25.87
2022-09-14T00:07:16.175Z,25.78
2022-09-14T00:07:54.619Z,25.76
2022-09-14T00:08:34.050Z,25.81
2022-09-14T00:09:16.112Z,25.84
2022-09-14T00:09:59.749Z,25.83
2022-09-14T00:10:40.649Z,25.85
2022-09-14T00:11:20.531Z,25.83
2022-09-14T00:12:00.042Z,25.68
2022-09-14T00:12:39.162Z,25.67
2022-09-14T00:13:19.088Z,25.61
2022-09-14T00:13:57.682Z,25.66
2022-09-14T00:14:37.050Z,25.62
2022-09-14T00:15:16.195Z,25.65
2022-09-14T00:15:55.446Z,25.67
2022-09-14T00:16:32.456Z,25.68
2022-09-14T00:17:10.841Z,25.67
2022-09-14T00:17:49.328Z,25.65
2022-09-14T00:18:27.573Z,25.68
2022-09-14T00:19:07.341Z,25.67
2022-09-14T00:19:45.263Z,25.67
2022-09-14T00:20:22.725Z,25.66
2022-09-14T00:21:05.711Z,25.69
2022-09-14T00:21:44.663Z,25.67
2022-09-14T00:22:22.922Z,25.64
2022-09-14T00:23:01.077Z,25.69
2022-09-14T00:23:38.771Z,25.67
2022-09-14T00:24:17.144Z,25.67
2022-09-14T00:24:55.414Z,25.70
2022-09-14T00:25:33.520Z,25.69
2022-09-14T00:26:13.786Z,25.70
2022-09-14T00:26:51.366Z,25.67
2022-09-14T00:27:30.245Z,25.64
2022-09-14T00:28:08.021Z,25.61
2022-09-14T00:28:45.093Z,25.62
2022-09-14T00:29:23.260Z,25.63
2022-09-14T00:30:01.216Z,25.62
2022-09-14T00:30:43.657Z,25.62
2022-09-14T00:31:21.516Z,25.63
2022-09-14T00:31:59.634Z,25.63
2022-09-14T00:32:37.495Z,25.63
2022-09-14T00:33:15.718Z,25.60
2022-09-14T00:33:55.347Z,25.61
2022-09-14T00:34:32.471Z,25.62
2022-09-14T00:35:09.646Z,25.61
2022-09-14T00:35:47.516Z,25.62
2022-09-14T00:36:24.779Z,25.55
2022-09-14T00:37:03.213Z,25.54
2022-09-14T00:37:41.486Z,25.56
2022-09-14T00:38:19.041Z,25.60
2022-09-14T00:38:55.946Z,25.59
2022-09-14T00:39:34.846Z,25.59
2022-09-14T00:40:11.694Z,25.60
2022-09-14T00:40:48.279Z,25.56
2022-09-14T00:41:26.167Z,25.55
2022-09-14T00:42:04.383Z,25.53
2022-09-14T00:42:42.013Z,25.53
2022-09-14T00:43:20.300Z,25.54
2022-09-14T00:43:57.400Z,25.55
2022-09-14T00:44:32.320Z,25.54
2022-09-14T00:45:09.391Z,25.53
2022-09-14T00:45:46.022Z,25.52
2022-09-14T00:46:22.698Z,25.55
2022-09-14T00:46:59.811Z,25.53
2022-09-14T00:47:36.526Z,25.54
2022-09-14T00:48:12.926Z,25.54
2022-09-14T00:48:50.216Z,25.55
2022-09-14T00:49:31.191Z,25.54
2022-09-14T00:50:08.584Z,25.53
2022-09-14T00:50:46.572Z,25.53
2022-09-14T00:51:24.878Z,25.55
2022-09-14T00:52:05.623Z,25.54
2022-09-14T00:52:44.155Z,25.55
2022-09-14T00:53:22.030Z,25.53
2022-09-14T00:54:00.567Z,25.54
2022-09-14T00:54:37.552Z,25.53
2022-09-14T00:55:22.079Z,25.53
2022-09-14T00:55:59.979Z,25.50
2022-09-14T00:56:37.922Z,25.52
2022-09-14T00:57:15.175Z,25.51
2022-09-14T00:57:52.014Z,25.49
2022-09-14T00:58:30.627Z,25.49
2022-09-14T00:59:09.927Z,25.48
2022-09-14T00:59:47.487Z,25.50
2022-09-14T01:00:25.185Z,25.50
2022-09-14T01:01:04.995Z,25.51
2022-09-14T01:01:44.021Z,25.49
2022-09-14T01:02:20.790Z,25.50
2022-09-14T01:02:58.844Z,25.48
2022-09-14T01:03:36.851Z,25.44
2022-09-14T01:04:14.578Z,25.47
2022-09-14T01:04:53.878Z,25.47
2022-09-14T01:05:36.933Z,25.48
2022-09-14T01:06:20.880Z,25.48
2022-09-14T01:06:59.161Z,25.46
2022-09-14T01:07:41.797Z,25.47
2022-09-14T01:08:28.444Z,25.48
2022-09-14T01:09:18.113Z,25.48
2022-09-14T01:09:59.437Z,25.48
2022-09-14T01:11:07.686Z,25.48
2022-09-14T01:11:53.427Z,25.46
2022-09-14T01:12:41.074Z,25.45
2022-09-14T01:13:35.394Z,25.47
2022-09-14T01:14:10.913Z,25.44
2022-09-14T01:15:06.875Z,25.45
2022-09-14T01:15:56.000Z,25.46
2022-09-14T01:16:50.870Z,25.44
2022-09-14T01:17:34.601Z,25.45
2022-09-14T01:18:10.037Z,25.45
2022-09-14T01:19:06.483Z,25.46
2022-09-14T01:20:02.498Z,25.44
2022-09-14T01:20:40.433Z,25.42
2022-09-14T01:21:18.120Z,25.42
2022-09-14T01:21:56.095Z,25.44
2022-09-14T01:22:37.795Z,25.43
2022-09-14T01:23:31.866Z,25.44
2022-09-14T01:24:09.679Z,25.45
2022-09-14T01:24:47.966Z,25.45
2022-09-14T01:25:34.814Z,25.43
2022-09-14T01:26:09.969Z,25.42
2022-09-14T01:26:47.830Z,25.44
2022-09-14T01:27:31.951Z,25.46
2022-09-14T01:28:08.821Z,25.46
2022-09-14T01:29:00.337Z,25.44
2022-09-14T01:29:38.082Z,25.45
2022-09-14T01:30:18.803Z,25.42
2022-09-14T01:30:56.851Z,25.43
2022-09-14T01:31:38.133Z,25.41
2022-09-14T01:32:24.266Z,25.40
2022-09-14T01:33:04.610Z,25.42
2022-09-14T01:33:42.523Z,25.41
2022-09-14T01:34:24.055Z,25.42
2022-09-14T01:35:08.045Z,25.43
2022-09-14T01:35:50.304Z,25.42
2022-09-14T01:36:29.079Z,25.41
2022-09-14T01:37:09.939Z,25.42
2022-09-14T01:38:00.397Z,25.42
2022-09-14T01:38:38.046Z,25.39
2022-09-14T01:39:15.510Z,25.39
2022-09-14T01:39:53.191Z,25.41
2022-09-14T01:40:30.827Z,25.43
2022-09-14T01:41:07.507Z,25.39
2022-09-14T01:41:44.013Z,25.40
2022-09-14T01:42:20.751Z,25.40
2022-09-14T01:42:58.742Z,25.40
2022-09-14T01:43:36.933Z,25.43
2022-09-14T01:44:14.722Z,25.40
2022-09-14T01:44:54.840Z,25.39
2022-09-14T01:45:32.305Z,25.39
2022-09-14T01:46:28.215Z,25.40
2022-09-14T01:47:08.053Z,25.40
2022-09-14T01:47:45.810Z,25.41
2022-09-14T01:48:23.463Z,25.39
2022-09-14T01:49:06.823Z,25.40
2022-09-14T01:49:45.617Z,25.42
2022-09-14T01:50:43.082Z,25.40
2022-09-14T01:51:22.399Z,25.39
2022-09-14T01:52:07.467Z,25.40
2022-09-14T01:52:58.106Z,25.38
2022-09-14T01:53:35.210Z,25.42
2022-09-14T01:54:18.134Z,25.39
2022-09-14T01:54:54.543Z,25.39
2022-09-14T01:55:31.182Z,25.39
2022-09-14T01:56:13.204Z,25.39
2022-09-14T01:56:56.719Z,25.38
2022-09-14T01:57:40.250Z,25.38
2022-09-14T01:58:20.821Z,25.40
2022-09-14T01:59:00.707Z,25.42
2022-09-14T01:59:40.656Z,25.39
2022-09-14T02:00:18.289Z,25.40
2022-09-14T02:00:54.703Z,25.39
2022-09-14T02:01:34.949Z,25.38
2022-09-14T02:02:13.053Z,25.39
2022-09-14T02:02:53.316Z,25.36
2022-09-14T02:03:30.196Z,25.38
2022-09-14T02:04:08.180Z,25.38
2022-09-14T02:04:47.570Z,25.39
2022-09-14T02:05:36.961Z,25.36
2022-09-14T02:06:15.001Z,25.35
2022-09-14T02:06:51.736Z,25.38
2022-09-14T02:07:29.722Z,25.36
2022-09-14T02:08:06.449Z,25.37
2022-09-14T02:08:43.282Z,25.35
2022-09-14T02:09:20.077Z,25.33
2022-09-14T02:09:58.487Z,25.33
2022-09-14T02:10:36.996Z,25.38
2022-09-14T02:11:15.767Z,25.36
2022-09-14T02:11:53.700Z,25.38
2022-09-14T02:12:32.292Z,25.36
2022-09-14T02:13:10.233Z,25.38
2022-09-14T02:13:48.667Z,25.37
2022-09-14T02:14:26.133Z,25.38
2022-09-14T02:15:06.121Z,25.38
2022-09-14T02:15:44.509Z,25.39
2022-09-14T02:16:22.265Z,25.36
2022-09-14T02:17:00.755Z,25.38
2022-09-14T02:17:38.595Z,25.37
2022-09-14T02:18:17.328Z,25.36
2022-09-14T02:18:55.170Z,25.36
2022-09-14T02:19:32.103Z,25.36
2022-09-14T02:20:09.359Z,25.35
2022-09-14T02:20:48.002Z,25.37
2022-09-14T02:21:24.998Z,25.34
2022-09-14T02:22:04.165Z,25.35
2022-09-14T02:22:42.266Z,25.38
2022-09-14T02:23:20.165Z,25.37
2022-09-14T02:23:57.682Z,25.36
2022-09-14T02:24:35.916Z,25.37
2022-09-14T02:25:14.045Z,25.36
2022-09-14T02:25:52.258Z,25.36
2022-09-14T02:26:30.810Z,25.37
2022-09-14T02:27:08.110Z,25.38
2022-09-14T02:27:46.068Z,25.36
2022-09-14T02:28:24.464Z,25.34
2022-09-14T02:29:02.881Z,25.35
2022-09-14T02:29:41.870Z,25.35
2022-09-14T02:30:18.736Z,25.37
2022-09-14T02:31:02.425Z,25.36
2022-09-14T02:31:43.499Z,25.36
2022-09-14T02:32:32.572Z,25.35
2022-09-14T02:33:11.347Z,25.35
2022-09-14T02:33:50.546Z,25.35
2022-09-14T02:34:47.534Z,25.38
2022-09-14T02:35:43.084Z,25.37
2022-09-14T02:36:21.169Z,25.36
2022-09-14T02:37:04.725Z,25.35
2022-09-14T02:37:46.995Z,25.35
2022-09-14T02:38:22.247Z,25.35
2022-09-14T02:38:59.736Z,25.36
2022-09-14T02:39:54.315Z,25.35
2022-09-14T02:40:40.577Z,25.33
2022-09-14T02:41:28.856Z,25.33
2022-09-14T02:42:06.878Z,25.33
2022-09-14T02:42:44.852Z,25.33
2022-09-14T02:43:28.228Z,25.33
2022-09-14T02:44:17.946Z,25.31
2022-09-14T02:44:58.220Z,25.31
2022-09-14T02:45:48.910Z,25.33
2022-09-14T02:46:35.793Z,25.32
2022-09-14T02:47:16.582Z,25.32
2022-09-14T02:47:57.657Z,25.33
2022-09-14T02:48:39.496Z,25.31
2022-09-14T02:49:17.465Z,25.31
2022-09-14T02:50:01.001Z,25.32
2022-09-14T02:50:51.560Z,25.33
2022-09-14T02:51:44.002Z,25.32
2022-09-14T02:52:46.228Z,25.34
2022-09-14T02:53:45.852Z,25.33
2022-09-14T02:54:42.108Z,25.32
2022-09-14T02:55:33.399Z,25.32
2022-09-14T02:56:25.315Z,25.35
2022-09-14T02:57:17.426Z,25.32
2022-09-14T02:58:07.265Z,25.30
2022-09-14T02:59:05.413Z,25.30
2022-09-14T02:59:57.264Z,25.31
2022-09-14T03:00:59.331Z,25.31
2022-09-14T03:01:51.870Z,25.30
2022-09-14T03:02:44.243Z,25.33
2022-09-14T03:03:37.069Z,25.31
2022-09-14T03:05:32.951Z,25.31
2022-09-14T03:06:25.677Z,25.28
2022-09-14T03:07:18.262Z,25.30
2022-09-14T03:08:11.394Z,25.29
2022-09-14T03:09:07.873Z,25.27
2022-09-14T03:10:00.369Z,25.27
2022-09-14T03:10:53.065Z,25.30
2022-09-14T03:11:46.931Z,25.30
2022-09-14T03:12:40.009Z,25.30
2022-09-14T03:13:33.471Z,25.31
2022-09-14T03:14:30.815Z,25.31
2022-09-14T03:15:21.139Z,25.30
2022-09-14T03:16:21.030Z,25.29
2022-09-14T03:17:11.123Z,25.31
2022-09-14T03:18:01.337Z,25.29
2022-09-14T03:18:55.990Z,25.29
2022-09-14T03:19:47.185Z,25.29
2022-09-14T03:20:36.684Z,25.29
2022-09-14T03:21:26.829Z,25.31
2022-09-14T03:22:15.930Z,25.31
2022-09-14T03:23:04.428Z,25.31
2022-09-14T03:23:58.915Z,25.29
2022-09-14T03:24:48.773Z,25.30
2022-09-14T03:25:39.990Z,25.31
2022-09-14T03:26:29.184Z,25.29
2022-09-14T03:27:18.720Z,25.29
2022-09-14T03:28:08.720Z,25.29
2022-09-14T03:29:05.668Z,25.31
2022-09-14T03:29:55.330Z,25.30
2022-09-14T03:30:47.763Z,25.30
2022-09-14T03:31:37.827Z,25.30
2022-09-14T03:32:27.594Z,25.30
2022-09-14T03:33:15.719Z,25.30
2022-09-14T03:34:08.486Z,25.31
2022-09-14T03:34:58.932Z,25.30
2022-09-14T03:35:49.531Z,25.31
2022-09-14T03:36:38.349Z,25.30
2022-09-14T03:37:26.621Z,25.28
2022-09-14T03:38:16.569Z,25.30
2022-09-14T03:39:10.596Z,25.29
2022-09-14T03:39:59.591Z,25.29
2022-09-14T03:40:50.281Z,25.30
2022-09-14T03:41:40.309Z,25.30
2022-09-14T03:42:28.714Z,25.30
2022-09-14T03:43:17.292Z,25.31
2022-09-14T03:44:07.827Z,25.30
2022-09-14T03:45:01.892Z,25.30
2022-09-14T03:45:56.896Z,25.30
2022-09-14T03:46:46.582Z,25.30
2022-09-14T03:47:36.990Z,25.30
2022-09-14T03:48:27.019Z,25.29
2022-09-14T03:49:17.271Z,25.30
2022-09-14T03:50:12.230Z,25.30
2022-09-14T03:51:03.745Z,25.30
2022-09-14T03:51:54.377Z,25.29
2022-09-14T03:52:47.038Z,25.29
2022-09-14T03:53:37.105Z,25.30
2022-09-14T03:54:28.051Z,25.30
2022-09-14T03:55:18.665Z,25.29
2022-09-14T03:56:14.548Z,25.30
2022-09-14T03:57:05.025Z,25.29
2022-09-14T03:58:35.506Z,25.30
2022-09-14T03:59:28.838Z,25.29
2022-09-14T04:00:15.133Z,25.30
2022-09-14T04:01:06.368Z,25.31
2022-09-14T04:01:55.345Z,25.29
2022-09-14T04:02:45.338Z,25.29
2022-09-14T04:03:35.355Z,25.30
2022-09-14T04:04:25.365Z,25.30
2022-09-14T04:05:19.789Z,25.30
2022-09-14T04:06:13.790Z,25.30
2022-09-14T04:07:05.065Z,25.31
2022-09-14T04:07:54.708Z,25.29
2022-09-14T04:08:46.087Z,25.30
2022-09-14T04:09:35.599Z,25.29
2022-09-14T04:10:27.221Z,25.29
2022-09-14T04:11:35.859Z,25.30
2022-09-14T04:12:27.526Z,25.29
2022-09-14T04:13:18.908Z,25.31
2022-09-14T04:14:11.968Z,25.33
2022-09-14T04:15:09.159Z,25.31
2022-09-14T04:16:07.108Z,25.30
2022-09-14T04:16:58.931Z,25.32
2022-09-14T04:17:49.708Z,25.30
2022-09-14T04:18:40.668Z,25.30
2022-09-14T04:19:32.260Z,25.30
2022-09-14T04:21:27.020Z,25.30
2022-09-14T04:22:20.474Z,25.30
2022-09-14T04:23:14.192Z,25.31
2022-09-14T04:24:15.872Z,25.31
2022-09-14T04:25:08.029Z,25.29
2022-09-14T04:26:06.356Z,25.31
2022-09-14T04:27:00.435Z,25.30
2022-09-14T04:28:16.750Z,25.30
2022-09-14T04:29:03.811Z,25.30
2022-09-14T04:29:57.333Z,25.30
2022-09-14T04:30:57.335Z,25.28
2022-09-14T04:31:47.353Z,25.30
2022-09-14T04:32:37.673Z,25.30
2022-09-14T04:33:27.176Z,25.30
2022-09-14T04:34:16.436Z,25.29
2022-09-14T04:35:08.182Z,25.30
2022-09-14T04:36:06.091Z,25.29
2022-09-14T04:36:57.143Z,25.31
2022-09-14T04:37:50.440Z,25.29
2022-09-14T04:38:40.729Z,25.31
2022-09-14T04:39:33.210Z,25.30
2022-09-14T04:40:27.071Z,25.30
2022-09-14T04:41:24.760Z,25.31
2022-09-14T04:42:17.535Z,25.32
2022-09-14T04:43:10.850Z,25.31
2022-09-14T04:44:04.451Z,25.30
2022-09-14T04:44:57.236Z,25.31
2022-09-14T04:45:50.657Z,25.31
2022-09-14T04:46:49.686Z,25.31
2022-09-14T04:47:40.112Z,25.31
2022-09-14T04:48:30.364Z,25.32
2022-09-14T04:49:21.140Z,25.33
2022-09-14T04:50:13.941Z,25.35
2022-09-14T04:51:06.750Z,25.32
2022-09-14T04:52:05.989Z,25.31
2022-09-14T04:52:58.410Z,25.30
2022-09-14T04:53:49.287Z,25.32
2022-09-14T04:54:39.845Z,25.30
2022-09-14T04:55:35.752Z,25.31
2022-09-14T04:56:30.902Z,25.33
2022-09-14T04:57:22.252Z,25.32
2022-09-14T04:58:17.716Z,25.32
2022-09-14T04:59:08.124Z,25.32
2022-09-14T04:59:59.852Z,25.33
2022-09-14T05:00:54.573Z,25.33
2022-09-14T05:01:54.816Z,25.35
2022-09-14T05:02:47.113Z,25.32
2022-09-14T05:03:39.823Z,25.33
2022-09-14T05:04:32.610Z,25.32
2022-09-14T05:05:29.132Z,25.35
2022-09-14T05:06:20.144Z,25.32
2022-09-14T05:07:12.370Z,25.32
2022-09-14T05:08:05.624Z,25.35
2022-09-14T05:08:58.462Z,25.35
2022-09-14T05:09:56.083Z,25.32
2022-09-14T05:10:49.161Z,25.34
2022-09-14T05:11:39.251Z,25.34
2022-09-14T05:12:29.649Z,25.32
2022-09-14T05:13:21.412Z,25.33
2022-09-14T05:14:12.125Z,25.34
2022-09-14T05:16:01.713Z,25.33
2022-09-14T05:16:51.925Z,25.33
2022-09-14T05:17:44.493Z,25.35
2022-09-14T05:18:36.541Z,25.35
2022-09-14T05:19:29.738Z,25.35
2022-09-14T05:20:26.336Z,25.32
2022-09-14T05:21:18.503Z,25.34
2022-09-14T05:22:11.280Z,25.32
2022-09-14T05:23:04.884Z,25.35
2022-09-14T05:23:57.578Z,25.33
2022-09-14T05:24:47.571Z,25.35
2022-09-14T05:25:44.758Z,25.34
2022-09-14T05:26:36.481Z,25.31
2022-09-14T05:27:25.460Z,25.33
2022-09-14T05:28:14.589Z,25.31
2022-09-14T05:29:04.452Z,25.33
2022-09-14T05:29:59.220Z,25.32
2022-09-14T05:30:57.190Z,25.31
2022-09-14T05:31:51.045Z,25.33
2022-09-14T05:32:46.036Z,25.33
2022-09-14T05:33:39.534Z,25.35
2022-09-14T05:34:36.714Z,25.33
2022-09-14T05:35:30.513Z,25.34
2022-09-14T05:36:21.462Z,25.33
2022-09-14T05:37:15.324Z,25.29
2022-09-14T05:38:08.054Z,25.27
2022-09-14T05:39:01.847Z,25.27
2022-09-14T05:39:58.986Z,25.30
2022-09-14T05:40:49.393Z,25.28
2022-09-14T05:41:38.792Z,25.27
2022-09-14T05:42:27.675Z,25.27
2022-09-14T05:43:16.341Z,25.29
2022-09-14T05:44:07.920Z,25.30
2022-09-14T05:45:07.973Z,25.30
2022-09-14T05:45:59.698Z,25.34
2022-09-14T05:46:52.026Z,25.31
2022-09-14T05:47:45.417Z,25.30
2022-09-14T05:48:37.259Z,25.32
2022-09-14T05:49:31.168Z,25.32
2022-09-14T05:51:24.537Z,25.33
2022-09-14T05:52:15.638Z,25.32
2022-09-14T05:53:13.101Z,25.31
2022-09-14T05:54:14.386Z,25.29
2022-09-14T05:55:08.171Z,25.29
2022-09-14T05:56:00.278Z,25.30
2022-09-14T05:56:50.887Z,25.30
2022-09-14T05:57:41.023Z,25.31
2022-09-14T05:58:31.557Z,25.30
2022-09-14T05:59:21.447Z,25.31
2022-09-14T06:00:10.143Z,25.33
2022-09-14T06:01:01.055Z,25.31
2022-09-14T06:01:51.467Z,25.31
2022-09-14T06:02:40.453Z,25.31
2022-09-14T06:03:30.034Z,25.30
2022-09-14T06:04:21.442Z,25.31
2022-09-14T06:05:15.067Z,25.31
2022-09-14T06:06:14.743Z,25.29
2022-09-14T06:07:17.833Z,25.31
2022-09-14T06:08:07.483Z,25.31
2022-09-14T06:08:58.753Z,25.32
2022-09-14T06:09:53.537Z,25.30
2022-09-14T06:10:46.097Z,25.29
2022-09-14T06:11:37.202Z,25.29
2022-09-14T06:12:29.464Z,25.31
2022-09-14T06:13:20.963Z,25.31
2022-09-14T06:14:13.970Z,25.31
2022-09-14T06:16:08.317Z,25.32
2022-09-14T06:16:59.034Z,25.33
2022-09-14T06:17:49.265Z,25.31
2022-09-14T06:18:38.984Z,25.31
2022-09-14T06:19:30.061Z,25.30
2022-09-14T06:21:27.888Z,25.30
2022-09-14T06:22:21.340Z,25.31
2022-09-14T06:23:13.855Z,25.31
2022-09-14T06:24:06.202Z,25.30
2022-09-14T06:24:59.189Z,25.31
2022-09-14T06:25:56.140Z,25.29
2022-09-14T06:26:48.158Z,25.30
2022-09-14T06:27:41.365Z,25.31
2022-09-14T06:28:32.631Z,25.30
2022-09-14T06:29:23.663Z,25.30
2022-09-14T06:30:14.366Z,25.31
2022-09-14T06:32:08.898Z,25.32
2022-09-14T06:33:00.159Z,25.32
2022-09-14T06:33:53.795Z,25.32
2022-09-14T06:34:50.808Z,25.32
2022-09-14T06:35:46.391Z,25.33
2022-09-14T06:36:37.300Z,25.33
2022-09-14T06:37:29.332Z,25.32
2022-09-14T06:39:19.773Z,25.32
2022-09-14T06:40:16.151Z,25.32
2022-09-14T06:42:20.567Z,25.30
2022-09-14T06:43:16.006Z,25.31
2022-09-14T06:44:09.926Z,25.32
2022-09-14T06:46:02.439Z,25.33
2022-09-14T06:46:56.125Z,25.33
2022-09-14T06:47:49.282Z,25.32
2022-09-14T06:48:43.511Z,25.30
2022-09-14T06:52:55.334Z,25.32
2022-09-14T06:54:04.664Z,25.31
2022-09-14T06:55:03.201Z,25.29
2022-09-14T06:56:11.407Z,25.30
2022-09-14T06:57:09.430Z,25.31
2022-09-14T06:58:38.961Z,25.30
2022-09-14T06:59:40.279Z,25.31
2022-09-14T07:00:40.068Z,25.31
2022-09-14T07:02:37.776Z,25.30
2022-09-14T07:03:32.847Z,25.32
2022-09-14T07:04:25.836Z,25.32
2022-09-14T07:05:20.002Z,25.31
2022-09-14T07:06:20.620Z,25.31
2022-09-14T07:07:12.818Z,25.32
2022-09-14T07:08:11.903Z,25.31
2022-09-14T07:09:03.584Z,25.33
2022-09-14T07:09:56.057Z,25.31
2022-09-14T07:10:49.107Z,25.32
2022-09-14T07:12:45.903Z,25.30
2022-09-14T07:13:38.410Z,25.30
2022-09-14T07:14:32.467Z,25.31
2022-09-14T07:15:21.602Z,25.30
2022-09-14T07:16:17.027Z,25.31
2022-09-14T07:17:08.061Z,25.31
2022-09-14T07:18:02.176Z,25.28
2022-09-14T07:18:55.557Z,25.31
2022-09-14T07:19:48.974Z,25.30
2022-09-14T07:20:46.038Z,25.30
2022-09-14T07:21:36.956Z,25.31
2022-09-14T07:22:29.998Z,25.30
2022-09-14T07:23:20.281Z,25.30
2022-09-14T07:24:13.932Z,25.30
2022-09-14T07:25:05.401Z,25.29
2022-09-14T07:26:04.411Z,25.29
2022-09-14T07:26:56.154Z,25.29
2022-09-14T07:27:47.684Z,25.30
2022-09-14T07:28:39.054Z,25.29
2022-09-14T07:29:27.338Z,25.28
2022-09-14T07:30:15.335Z,25.28
2022-09-14T07:31:12.059Z,25.30
2022-09-14T07:32:04.299Z,25.29
2022-09-14T07:32:54.629Z,25.30
2022-09-14T07:33:45.584Z,25.30
2022-09-14T07:34:33.809Z,25.27
2022-09-14T07:35:22.990Z,25.28
2022-09-14T07:36:23.383Z,25.30
2022-09-14T07:37:17.907Z,25.30
2022-09-14T07:38:10.080Z,25.31
2022-09-14T07:39:00.891Z,25.29
2022-09-14T07:39:52.267Z,25.30
2022-09-14T07:40:48.645Z,25.28
2022-09-14T07:41:39.659Z,25.29
2022-09-14T07:42:30.604Z,25.30
2022-09-14T07:43:23.839Z,25.30
2022-09-14T07:44:16.864Z,25.29
2022-09-14T07:45:10.705Z,25.28
2022-09-14T07:46:09.999Z,25.26
2022-09-14T07:47:00.276Z,25.26
2022-09-14T07:47:51.975Z,25.26
2022-09-14T07:48:44.712Z,25.27
2022-09-14T07:49:36.604Z,25.27
2022-09-14T07:50:29.309Z,25.29
2022-09-14T07:51:26.479Z,25.29
2022-09-14T07:52:18.812Z,25.29
2022-09-14T07:53:12.330Z,25.28
2022-09-14T07:54:05.629Z,25.28
2022-09-14T07:54:57.905Z,25.26
2022-09-14T07:55:54.427Z,25.30
2022-09-14T07:56:51.969Z,25.30
2022-09-14T07:57:55.687Z,25.28
2022-09-14T07:58:46.106Z,25.28
2022-09-14T07:59:37.187Z,25.28
2022-09-14T08:00:26.338Z,25.28
2022-09-14T08:01:17.275Z,25.29
2022-09-14T08:02:13.691Z,25.28
2022-09-14T08:03:08.421Z,25.29
2022-09-14T08:04:05.181Z,25.28
2022-09-14T08:04:57.752Z,25.29
2022-09-14T08:05:50.044Z,25.27
2022-09-14T08:06:43.573Z,25.29
2022-09-14T08:07:35.809Z,25.28
2022-09-14T08:08:28.273Z,25.27
2022-09-14T08:09:22.567Z,25.28
2022-09-14T08:10:14.892Z,25.27
2022-09-14T08:11:08.235Z,25.28
2022-09-14T08:12:06.881Z,25.27
2022-09-14T08:12:59.116Z,25.27
2022-09-14T08:13:51.641Z,25.28
2022-09-14T08:14:43.318Z,25.27
2022-09-14T08:15:37.285Z,25.27
2022-09-14T08:16:32.911Z,25.27
2022-09-14T08:17:25.494Z,25.26
2022-09-14T08:18:17.150Z,25.28
2022-09-14T08:19:08.673Z,25.29
2022-09-14T08:20:00.309Z,25.30
2022-09-14T08:20:50.392Z,25.28
2022-09-14T08:21:49.906Z,25.26
2022-09-14T08:22:42.850Z,25.29
2022-09-14T08:23:39.886Z,25.27
2022-09-14T08:24:33.257Z,25.27
2022-09-14T08:25:28.075Z,25.27
2022-09-14T08:26:20.427Z,25.28
2022-09-14T08:27:17.280Z,25.28
2022-09-14T08:28:08.031Z,25.29
2022-09-14T08:29:01.183Z,25.28
2022-09-14T08:29:52.825Z,25.27
2022-09-14T08:30:43.661Z,25.26
2022-09-14T08:31:32.965Z,25.26
2022-09-14T08:32:28.663Z,25.27
2022-09-14T08:33:19.335Z,25.26
2022-09-14T08:34:10.509Z,25.28
2022-09-14T08:35:08.652Z,25.29
2022-09-14T08:35:58.499Z,25.28
2022-09-14T08:36:47.938Z,25.27
2022-09-14T08:37:36.584Z,25.26
2022-09-14T08:38:26.324Z,25.27
2022-09-14T08:39:15.469Z,25.27
2022-09-14T08:40:02.624Z,25.29
2022-09-14T08:40:58.129Z,25.28
2022-09-14T08:41:48.380Z,25.26
2022-09-14T08:42:37.948Z,25.28
2022-09-14T08:43:31.935Z,25.28
2022-09-14T08:44:24.429Z,25.26
2022-09-14T08:45:12.650Z,25.28
2022-09-14T08:46:03.316Z,25.26
2022-09-14T08:46:54.312Z,25.26
2022-09-14T08:47:47.957Z,25.27
2022-09-14T08:48:44.240Z,25.26
2022-09-14T08:49:40.040Z,25.26
2022-09-14T08:50:34.702Z,25.26
2022-09-14T08:51:28.098Z,25.27
2022-09-14T08:52:23.035Z,25.29
2022-09-14T08:53:13.003Z,25.28
2022-09-14T08:54:08.784Z,25.26
2022-09-14T08:55:06.387Z,25.26
2022-09-14T08:56:09.598Z,25.25
2022-09-14T08:56:57.885Z,25.29
2022-09-14T08:57:51.224Z,25.26
2022-09-14T08:58:54.278Z,25.26
2022-09-14T08:59:51.915Z,25.26
2022-09-14T09:00:46.552Z,25.22
2022-09-14T09:01:28.470Z,25.08
2022-09-14T09:02:29.293Z,25.14
2022-09-14T09:03:23.939Z,25.21
2022-09-14T09:04:29.989Z,25.24
2022-09-14T09:05:35.059Z,25.25
2022-09-14T09:06:39.200Z,25.26
2022-09-14T09:07:33.269Z,25.29
2022-09-14T09:08:28.113Z,25.30
2022-09-14T09:09:19.890Z,25.33
2022-09-14T09:10:16.355Z,25.33
2022-09-14T09:11:12.655Z,25.32
2022-09-14T09:13:08.012Z,25.33
2022-09-14T09:13:54.478Z,25.33
2022-09-14T09:14:48.940Z,25.32
2022-09-14T09:15:39.621Z,25.34
2022-09-14T09:16:22.987Z,25.34
2022-09-14T09:17:31.863Z,25.32
2022-09-14T09:18:27.462Z,25.36
2022-09-14T09:19:36.546Z,25.38
2022-09-14T09:20:34.032Z,25.39
2022-09-14T09:21:23.075Z,25.41
2022-09-14T09:22:22.590Z,25.39
2022-09-14T09:24:20.866Z,25.38
2022-09-14T09:25:13.688Z,25.36
2022-09-14T09:25:57.114Z,25.38
2022-09-14T09:26:47.593Z,25.36
2022-09-14T09:27:44.658Z,25.37
2022-09-14T09:28:37.517Z,25.40
2022-09-14T09:29:32.593Z,25.38
2022-09-14T09:30:26.133Z,25.42
2022-09-14T09:31:23.683Z,25.42
2022-09-14T09:33:30.006Z,25.45
2022-09-14T09:34:21.190Z,25.45
2022-09-14T09:35:17.682Z,25.46
2022-09-14T09:36:08.648Z,25.47
2022-09-14T09:38:01.922Z,25.51
2022-09-14T09:38:56.051Z,25.49
2022-09-14T09:39:51.145Z,25.50
2022-09-14T09:40:48.241Z,25.52
2022-09-14T09:43:10.376Z,25.46
2022-09-14T09:44:01.998Z,25.47
2022-09-14T09:45:06.707Z,25.47
2022-09-14T09:46:01.496Z,25.50
2022-09-14T09:48:34.360Z,25.32
2022-09-14T09:49:28.944Z,25.37
2022-09-14T09:50:23.556Z,25.40
2022-09-14T09:51:24.680Z,25.43
2022-09-14T09:52:21.776Z,25.46
2022-09-14T09:53:14.044Z,25.38
2022-09-14T09:54:22.826Z,25.47
2022-09-14T09:55:16.210Z,25.47
2022-09-14T09:56:10.449Z,25.54
2022-09-14T09:57:05.052Z,25.55
2022-09-14T09:58:42.087Z,25.57
2022-09-14T09:59:34.462Z,25.59
2022-09-14T10:01:47.656Z,25.63
2022-09-14T10:02:31.667Z,25.63
2022-09-14T10:03:39.397Z,25.63
2022-09-14T10:04:29.630Z,25.64
2022-09-14T10:06:21.001Z,25.60
2022-09-14T10:07:19.328Z,25.63
2022-09-14T10:08:15.142Z,25.61
2022-09-14T10:09:12.282Z,25.65
2022-09-14T10:11:08.915Z,25.68
2022-09-14T10:12:09.785Z,25.70
2022-09-14T10:12:59.713Z,25.67
2022-09-14T10:13:46.720Z,25.64
2022-09-14T10:14:45.770Z,25.68
2022-09-14T10:15:37.398Z,25.67
2022-09-14T10:16:32.965Z,25.54
2022-09-14T10:17:37.492Z,25.51
2022-09-14T10:18:28.426Z,25.49
2022-09-14T10:19:22.772Z,25.44
2022-09-14T10:20:16.623Z,25.48
2022-09-14T10:20:58.850Z,25.37
2022-09-14T10:22:55.380Z,25.38
2022-09-14T10:23:46.532Z,25.39
2022-09-14T10:24:36.232Z,25.37
2022-09-14T10:25:19.019Z,25.33
2022-09-14T10:26:17.522Z,25.33
2022-09-14T10:27:07.820Z,25.29
2022-09-14T10:28:01.164Z,25.36
2022-09-14T10:28:54.756Z,25.34
2022-09-14T10:29:46.544Z,25.38
2022-09-14T10:30:38.465Z,25.37
2022-09-14T10:31:21.070Z,25.43
2022-09-14T10:32:15.094Z,25.44
2022-09-14T10:33:16.259Z,25.47
2022-09-14T10:34:14.375Z,25.50
2022-09-14T10:35:05.799Z,25.49
2022-09-14T10:35:49.637Z,25.42
2022-09-14T10:36:45.533Z,25.44
2022-09-14T10:37:35.657Z,25.51
2022-09-14T10:38:40.033Z,25.44
2022-09-14T10:39:26.549Z,25.39
2022-09-14T10:40:12.316Z,25.39
2022-09-14T10:41:02.981Z,25.40
2022-09-14T10:41:56.363Z,25.36
2022-09-14T10:42:48.048Z,25.38
2022-09-14T10:43:47.351Z,25.39
2022-09-14T10:44:52.512Z,25.40
2022-09-14T10:45:46.960Z,25.45
2022-09-14T10:46:40.750Z,25.40
2022-09-14T10:47:24.195Z,25.46
2022-09-14T10:48:06.793Z,25.39
2022-09-14T10:49:08.824Z,25.44
2022-09-14T10:50:01.737Z,25.37
2022-09-14T10:51:09.073Z,25.45
2022-09-14T10:51:59.495Z,25.47
2022-09-14T10:53:04.115Z,25.43
2022-09-14T10:54:17.628Z,25.49
2022-09-14T10:55:00.898Z,25.44
2022-09-14T10:55:44.688Z,25.45
2022-09-14T10:56:49.324Z,25.45
2022-09-14T10:57:57.053Z,25.40
2022-09-14T10:59:05.452Z,25.45
2022-09-14T10:59:57.177Z,25.49
2022-09-14T11:00:53.804Z,25.45
2022-09-14T11:01:44.746Z,25.44
2022-09-14T11:02:32.678Z,25.44